Time;durP1;ratioP1;P1;durP2;ratioP2;P2;SDS_P1;SDS_P2;PMS_P1;PMS_P2;Temp;Humidity;BMP_temperature;BMP_pressure;BME280_temperature;BME280_humidity;BME280_pressure;Samples;Min_cycle;Max_cycle;Signal;HPM_P1;HPM_P2
2023/11/02 00:01:35;;;;;;;1.38;0.80;;;;;;;10.28;55.17;93432.59;6188353;23;20013;-87
2023/11/02 00:16:39;;;;;;;2.38;0.70;;;;;;;10.26;55.03;93434.63;6216620;22;20024;-86
2023/11/02 00:47:16;;;;;;;1.75;0.60;;;;;;;10.09;54.90;93323.56;6189141;22;20025;-86
2023/11/02 00:49:44;;;;;;;2.38;0.63;;;;;;;10.10;54.97;93313.94;6212669;23;20004;-86
2023/11/02 00:52:14;;;;;;;5.40;0.80;;;;;;;10.24;53.77;93302.34;6163058;23;20009;-86
2023/11/02 00:54:53;;;;;;;1.80;0.60;;;;;;;10.29;53.99;93304.28;6187904;23;20056;-86
2023/11/02 00:57:22;;;;;;;5.40;0.80;;;;;;;10.32;54.47;93301.28;6212630;23;20016;-86
2023/11/02 01:04:59;;;;;;;1.40;0.60;;;;;;;10.26;54.49;93308.13;6153516;23;20022;-86
2023/11/02 01:15:05;;;;;;;1.73;0.70;;;;;;;9.64;56.54;93289.38;6182320;23;20032;-87
2023/11/02 01:17:32;;;;;;;0.80;0.73;;;;;;;9.61;56.81;93287.22;6195423;23;20000;-86
2023/11/02 01:20:10;;;;;;;1.48;0.98;;;;;;;9.41;56.96;93274.50;6200282;23;20005;-86
2023/11/02 01:22:58;;;;;;;1.58;0.90;;;;;;;9.40;56.89;93276.28;6163091;23;20040;-86
2023/11/02 01:25:27;;;;;;;1.00;0.70;;;;;;;9.46;56.58;93280.63;6187619;23;20081;-86
2023/11/02 01:27:58;;;;;;;1.83;0.80;;;;;;;9.41;57.09;93267.50;6187039;23;20019;-86
2023/11/02 01:31:04;;;;;;;1.40;0.80;;;;;;;9.43;57.20;93254.31;6187692;23;20008;-87
2023/11/02 01:33:36;;;;;;;1.40;0.80;;;;;;;9.56;56.52;93251.56;6166144;23;20017;-86
2023/11/02 01:36:03;;;;;;;2.20;0.90;;;;;;;9.42;57.31;93227.56;6187268;23;20008;-86
2023/11/02 01:38:31;;;;;;;3.97;0.80;;;;;;;9.35;57.43;93225.06;6162687;23;20012;-86
2023/11/02 01:48:51;;;;;;;0.93;0.70;;;;;;;9.53;55.96;93197.47;6157428;23;20025;-87
2023/11/02 01:51:47;;;;;;;1.23;0.70;;;;;;;9.27;56.71;93198.59;6182180;23;20047;-87
2023/11/02 01:54:24;;;;;;;1.15;0.63;;;;;;;9.71;56.24;93194.84;6181968;23;20005;-86
2023/11/02 01:56:57;;;;;;;2.75;0.80;;;;;;;9.57;56.18;93177.84;6182183;23;20044;-86
2023/11/02 01:59:51;;;;;;;0.65;0.60;;;;;;;9.48;54.99;93158.41;6157710;23;20013;-86
2023/11/02 02:02:32;;;;;;;0.90;0.68;;;;;;;9.77;55.79;93146.44;6182091;23;20032;-86
2023/11/02 02:20:16;;;;;;;1.67;0.70;;;;;;;8.97;57.83;93075.72;6219597;22;20020;-86
2023/11/02 02:22:53;;;;;;;1.20;0.60;;;;;;;9.15;57.49;93051.50;6157552;23;20025;-86
2023/11/02 02:25:27;;;;;;;1.30;0.70;;;;;;;9.58;56.06;93062.66;6157303;23;20005;-85
2023/11/02 02:28:07;;;;;;;0.88;0.50;;;;;;;9.98;55.03;93062.00;6157087;23;20037;-86
2023/11/02 02:30:59;;;;;;;0.98;0.50;;;;;;;9.93;55.27;93056.69;6158193;23;20040;-86
2023/11/02 02:33:42;;;;;;;0.77;0.70;;;;;;;9.66;56.47;93038.97;6159271;23;20001;-86
2023/11/02 02:36:13;;;;;;;0.77;0.57;;;;;;;10.02;55.43;93046.75;6159169;23;20035;-86
2023/11/02 02:38:52;;;;;;;1.98;0.70;;;;;;;9.79;56.35;93030.94;6158689;23;20004;-86
2023/11/02 02:41:24;;;;;;;1.55;0.70;;;;;;;9.88;56.51;93022.81;6159244;23;20019;-86
2023/11/02 02:43:52;;;;;;;1.70;0.70;;;;;;;10.20;55.48;93027.63;6158855;23;20005;-86
2023/11/02 02:46:22;;;;;;;0.80;0.60;;;;;;;10.15;54.99;93017.94;6134530;23;20039;-86
2023/11/02 02:48:48;;;;;;;1.77;0.60;;;;;;;10.19;55.14;93019.06;6158663;23;20005;-86
2023/11/02 03:06:51;;;;;;;0.88;0.50;;;;;;;10.28;54.69;92964.91;6160510;23;20038;-86
2023/11/02 03:09:20;;;;;;;1.02;0.50;;;;;;;9.98;54.87;92950.34;6153951;23;20009;-86
2023/11/02 03:11:50;;;;;;;2.40;0.70;;;;;;;9.95;55.31;92938.56;6157809;23;20005;-86
2023/11/02 03:14:16;;;;;;;0.90;0.68;;;;;;;9.97;55.41;92918.38;6158134;23;20001;-86
2023/11/02 03:16:43;;;;;;;0.80;0.50;;;;;;;10.30;54.01;92905.72;6158494;23;20013;-86
2023/11/02 03:21:45;;;;;;;0.95;0.60;;;;;;;9.76;56.05;92909.38;6201037;23;20012;-86
2023/11/02 03:24:20;;;;;;;2.25;0.55;;;;;;;10.24;54.82;92893.66;6138276;23;19997;-86
2023/11/02 03:26:45;;;;;;;1.55;0.60;;;;;;;10.34;54.60;92896.50;6188422;23;20012;-87
2023/11/02 03:29:26;;;;;;;0.65;0.50;;;;;;;10.44;54.34;92881.06;6196751;23;20012;-85
2023/11/02 03:32:14;;;;;;;1.30;0.60;;;;;;;10.46;54.16;92873.81;6199969;23;20004;-87
2023/11/02 03:34:45;;;;;;;0.82;0.60;;;;;;;10.43;54.12;92863.09;6188549;23;20008;-86
2023/11/02 03:40:24;;;;;;;1.17;0.68;;;;;;;9.89;55.29;92837.47;6220339;23;20012;-86
2023/11/02 03:51:13;;;;;;;0.98;0.60;;;;;;;10.87;53.34;92847.69;6214042;22;20016;-87
2023/11/02 03:54:04;;;;;;;1.15;0.93;;;;;;;10.59;52.72;92828.56;6187794;23;20135;-87
2023/11/02 03:56:38;;;;;;;1.92;0.52;;;;;;;10.88;52.94;92808.44;6187799;23;20004;-87
2023/11/02 03:59:13;;;;;;;0.95;0.50;;;;;;;10.74;53.17;92820.22;6188330;23;20108;-87
2023/11/02 04:02:04;;;;;;;0.70;0.50;;;;;;;10.91;52.48;92830.59;6188527;23;20032;-87
2023/11/02 04:04:56;;;;;;;0.60;0.45;;;;;;;10.96;52.72;92834.03;6187392;23;20007;-87
2023/11/02 04:07:34;;;;;;;0.82;0.70;;;;;;;10.99;52.33;92832.00;6185520;23;20035;-87
2023/11/02 04:10:11;;;;;;;1.20;0.65;;;;;;;11.35;51.84;92822.88;6187943;23;20075;-87
2023/11/02 04:12:55;;;;;;;1.58;0.60;;;;;;;11.62;51.31;92812.53;6158306;23;20020;-87
2023/11/02 04:15:21;;;;;;;1.25;0.70;;;;;;;11.45;51.18;92801.41;6157542;23;20052;-87
2023/11/02 04:17:47;;;;;;;1.02;0.60;;;;;;;11.66;51.14;92805.03;6157855;23;20009;-87
2023/11/02 05:02:24;;;;;;;0.70;0.68;;;;;;;10.27;55.11;92660.19;6161396;23;20021;-86
2023/11/02 05:04:50;;;;;;;1.20;0.82;;;;;;;10.47;54.30;92620.75;6163161;23;20021;-86
2023/11/02 05:07:18;;;;;;;1.65;0.93;;;;;;;10.59;54.21;92617.25;6187775;23;20004;-86
2023/11/02 05:09:44;;;;;;;1.23;0.98;;;;;;;10.26;55.06;92616.25;6163631;23;20007;-86
2023/11/02 05:20:28;;;;;;;1.08;0.88;;;;;;;10.89;53.16;92590.78;6157759;23;20025;-86
2023/11/02 05:22:54;;;;;;;1.38;0.98;;;;;;;10.72;53.31;92596.09;6049619;23;20022;-85
2023/11/02 05:25:19;;;;;;;1.83;1.10;;;;;;;11.08;52.93;92594.66;6048311;23;20041;-85
2023/11/02 05:27:45;;;;;;;3.50;1.20;;;;;;;10.90;53.17;92587.16;6072293;23;20010;-85
2023/11/02 05:30:10;;;;;;;1.27;0.90;;;;;;;11.08;51.10;92573.84;6072505;23;20013;-86
2023/11/02 05:32:38;;;;;;;2.78;1.17;;;;;;;11.33;51.40;92565.47;6049728;23;20068;-85
2023/11/02 05:35:04;;;;;;;1.30;0.82;;;;;;;11.34;50.99;92556.63;6097842;23;20010;-85
2023/11/02 05:37:32;;;;;;;1.00;0.80;;;;;;;11.59;50.10;92544.06;6074707;23;20048;-85
2023/11/02 05:39:57;;;;;;;1.40;0.90;;;;;;;11.72;49.84;92528.03;6075196;23;20052;-86
2023/11/02 05:42:23;;;;;;;2.13;1.15;;;;;;;11.86;49.51;92513.56;6077815;23;20010;-86
2023/11/02 05:44:48;;;;;;;2.60;1.00;;;;;;;11.73;50.05;92480.13;6078623;23;20006;-85
2023/11/02 05:47:14;;;;;;;2.00;1.30;;;;;;;11.70;49.53;92450.16;6075268;23;20013;-86
2023/11/02 05:49:40;;;;;;;2.17;1.08;;;;;;;11.87;49.78;92470.06;6099157;23;20017;-86
2023/11/02 05:52:06;;;;;;;2.80;1.15;;;;;;;11.82;49.73;92459.59;6074398;23;20018;-86
2023/11/02 05:56:56;;;;;;;1.48;1.08;;;;;;;12.77;46.38;92476.91;6154182;23;20010;-86
2023/11/02 05:59:22;;;;;;;3.30;1.30;;;;;;;12.66;46.84;92495.16;6102032;23;20048;-85
2023/11/02 06:01:47;;;;;;;3.00;1.42;;;;;;;12.76;46.25;92491.78;6078775;23;20032;-86
2023/11/02 06:04:16;;;;;;;1.58;1.17;;;;;;;13.06;45.98;92504.09;6079942;23;20013;-86
2023/11/02 06:06:41;;;;;;;1.40;1.10;;;;;;;13.18;44.79;92482.97;6105025;23;20053;-87
2023/11/02 06:09:07;;;;;;;1.10;0.90;;;;;;;13.41;45.91;92491.38;6105355;23;20010;-87
2023/11/02 06:11:33;;;;;;;1.45;1.00;;;;;;;13.12;45.50;92489.25;6104854;23;20021;-86
2023/11/02 06:16:34;;;;;;;1.75;0.57;;;;;;;13.02;43.40;92484.78;6153219;23;20025;-86
2023/11/02 06:19:00;;;;;;;1.33;0.77;;;;;;;13.59;43.68;92480.38;6104686;23;20014;-86
2023/11/02 06:23:54;;;;;;;1.80;1.10;;;;;;;13.96;44.48;92457.59;6169882;23;20033;-87
2023/11/02 06:26:22;;;;;;;1.17;0.75;;;;;;;14.03;42.04;92456.25;6158302;23;20051;-86
2023/11/02 06:28:48;;;;;;;2.03;0.98;;;;;;;14.05;41.82;92453.34;6158339;23;20032;-86
2023/11/02 06:33:39;;;;;;;2.40;0.70;;;;;;;14.70;40.22;92427.22;6167175;23;20112;-86
2023/11/02 06:36:04;;;;;;;0.60;0.50;;;;;;;15.13;39.30;92434.50;6105011;23;20096;-87
2023/11/02 06:38:30;;;;;;;0.90;0.45;;;;;;;15.31;38.12;92441.72;6152483;23;20020;-86
2023/11/02 06:40:57;;;;;;;0.25;0.22;;;;;;;15.66;35.88;92425.94;6153559;23;20072;-87
2023/11/02 06:43:26;;;;;;;0.35;0.20;;;;;;;15.93;36.67;92449.78;6152934;23;20025;-86
2023/11/02 06:45:52;;;;;;;0.60;0.25;;;;;;;16.28;35.15;92434.75;6153142;23;20002;-87
2023/11/02 06:48:18;;;;;;;0.85;0.40;;;;;;;16.57;34.73;92460.09;6128641;23;20021;-87
2023/11/02 06:50:46;;;;;;;1.05;0.30;;;;;;;16.73;33.90;92437.81;6128434;23;20010;-87
2023/11/02 07:23:32;;;;;;;2.45;1.50;;;;;;;13.96;48.71;92653.56;6159005;23;20025;-86
2023/11/02 07:25:58;;;;;;;3.67;1.75;;;;;;;13.78;49.30;92686.19;6157854;23;20013;-86
2023/11/02 07:28:24;;;;;;;3.42;1.90;;;;;;;13.27;50.37;92710.34;6157255;23;20005;-86
2023/11/02 07:33:18;;;;;;;4.43;2.30;;;;;;;12.43;54.05;92735.41;6159880;23;20032;-85
2023/11/02 07:45:55;;;;;;;3.88;2.42;;;;;;;11.24;57.69;92754.28;6132534;23;20010;-85
2023/11/02 07:48:20;;;;;;;5.28;2.75;;;;;;;11.09;59.08;92738.50;6128032;23;20013;-86
2023/11/02 07:50:46;;;;;;;3.63;2.70;;;;;;;11.17;58.58;92719.84;6102737;23;20005;-86
2023/11/02 07:53:15;;;;;;;3.70;2.50;;;;;;;11.23;57.93;92710.31;6128569;23;20102;-86
2023/11/02 07:58:08;;;;;;;4.78;2.63;;;;;;;11.11;58.87;92715.63;6214168;23;20041;-86
2023/11/02 08:00:34;;;;;;;4.68;2.58;;;;;;;11.10;59.09;92719.25;6169244;23;20023;-85
2023/11/02 08:03:03;;;;;;;5.10;2.83;;;;;;;11.42;58.34;92719.34;6158404;23;20005;-86
2023/11/02 08:05:29;;;;;;;4.30;2.67;;;;;;;11.54;57.97;92690.63;6157810;23;20007;-86
2023/11/02 08:07:54;;;;;;;2.97;2.67;;;;;;;11.67;58.02;92671.19;6157276;23;20001;-86
2023/11/02 08:12:47;;;;;;;5.05;3.20;;;;;;;12.00;57.05;92646.00;6160899;23;20021;-86
2023/11/02 08:15:12;;;;;;;5.35;3.15;;;;;;;12.02;57.22;92636.88;6107983;23;20060;-86
2023/11/02 08:17:42;;;;;;;4.82;2.80;;;;;;;12.15;57.11;92627.06;6133068;23;20012;-86
2023/11/02 08:20:10;;;;;;;4.45;2.78;;;;;;;12.19;56.58;92620.31;6157670;23;20012;-86
2023/11/02 08:30:01;;;;;;;4.85;2.60;;;;;;;12.55;54.80;92579.59;6182596;23;20028;-86
2023/11/02 08:32:29;;;;;;;3.92;2.70;;;;;;;12.60;54.97;92576.22;6132563;23;20019;-86
2023/11/02 08:45:17;;;;;;;3.17;2.63;;;;;;;12.48;55.00;92514.66;6181698;23;20063;-86
2023/11/02 08:47:45;;;;;;;3.47;2.60;;;;;;;12.46;55.52;92502.91;6182330;23;20016;-86
2023/11/02 08:50:12;;;;;;;3.45;2.83;;;;;;;12.44;55.47;92516.19;6157488;23;20016;-86
2023/11/02 08:52:38;;;;;;;3.08;2.78;;;;;;;12.32;55.82;92507.81;6182237;23;20007;-87
2023/11/02 08:55:04;;;;;;;3.80;3.08;;;;;;;12.29;56.18;92514.31;6182162;23;20092;-87
2023/11/02 08:57:30;;;;;;;4.65;3.10;;;;;;;12.30;57.03;92504.69;6182575;23;20005;-86
2023/11/02 08:59:59;;;;;;;3.20;2.83;;;;;;;12.39;57.04;92503.13;6182175;23;20091;-87
2023/11/02 09:15:37;;;;;;;4.93;3.28;;;;;;;12.39;57.19;92667.34;6189849;23;20032;-86
2023/11/02 09:18:02;;;;;;;3.72;3.35;;;;;;;12.35;57.09;92684.53;6157235;23;20021;-87
2023/11/02 09:20:28;;;;;;;4.47;3.45;;;;;;;12.29;57.18;92678.50;6132909;23;20097;-87
2023/11/02 09:22:53;;;;;;;5.00;3.53;;;;;;;12.52;56.63;92694.81;6157458;23;20013;-88
2023/11/02 09:25:19;;;;;;;5.15;4.03;;;;;;;12.42;56.16;92705.19;6132197;23;20093;-87
2023/11/02 09:27:47;;;;;;;5.55;3.70;;;;;;;12.52;55.98;92720.88;6132918;23;20013;-87
2023/11/02 09:30:13;;;;;;;5.60;3.88;;;;;;;12.26;56.94;92732.94;6157748;23;20013;-88
2023/11/02 09:32:38;;;;;;;4.63;3.90;;;;;;;12.01;57.59;92741.34;6157515;23;20023;-88
2023/11/02 09:35:04;;;;;;;5.53;3.92;;;;;;;11.97;57.45;92746.25;6157457;23;20020;-87
2023/11/02 09:37:30;;;;;;;5.35;4.40;;;;;;;11.87;58.35;92757.31;6109724;23;20009;-88
2023/11/02 11:45:11;;;;;;;2.53;1.75;;;;;;;12.41;60.71;92773.97;6198715;23;20029;-86
2023/11/02 11:47:45;;;;;;;3.45;1.88;;;;;;;12.50;61.04;92770.66;6128050;23;20021;-86
2023/11/02 12:03:36;;;;;;;2.25;1.80;;;;;;;12.05;61.83;92721.56;6183480;23;20021;-85
2023/11/02 12:06:12;;;;;;;2.33;1.80;;;;;;;12.59;61.25;92718.06;6181764;23;20016;-85
2023/11/02 12:08:56;;;;;;;3.85;1.90;;;;;;;12.63;61.17;92701.66;6182350;23;20008;-85
2023/11/02 12:11:24;;;;;;;2.53;1.60;;;;;;;12.58;60.76;92688.59;6157334;23;20020;-88
2023/11/02 12:13:58;;;;;;;2.20;1.67;;;;;;;12.70;60.74;92675.38;6183821;23;20032;-88
2023/11/02 12:16:34;;;;;;;1.90;1.50;;;;;;;12.08;62.39;92661.94;6184621;23;20012;-89
2023/11/02 15:29:34;;;;;;;1.30;0.93;;;;;;;11.03;65.25;92295.50;6153082;23;20021;-85
2023/11/02 15:32:02;;;;;;;1.20;1.10;;;;;;;11.49;63.89;92313.13;6129262;23;20024;-87
2023/11/02 15:34:28;;;;;;;1.15;1.00;;;;;;;11.56;63.17;92316.31;6129052;23;20005;-87
2023/11/02 17:02:11;;;;;;;1.95;1.75;;;;;;;11.75;62.03;92274.97;6170294;23;20110;-87
2023/11/02 17:04:40;;;;;;;4.80;1.30;;;;;;;11.69;62.02;92275.97;6134276;23;20040;-87
2023/11/02 17:07:06;;;;;;;2.80;1.25;;;;;;;11.57;62.44;92283.25;6158245;23;20009;-87
2023/11/02 17:09:33;;;;;;;2.20;1.65;;;;;;;11.68;61.67;92284.84;6156902;23;20040;-87
2023/11/02 17:11:59;;;;;;;1.73;1.27;;;;;;;11.81;61.23;92273.16;6156155;23;20070;-87
2023/11/02 17:37:22;;;;;;;2.60;2.40;;;;;;;11.43;62.23;92270.69;6158351;23;20018;-86
2023/11/02 17:39:47;;;;;;;2.47;2.28;;;;;;;11.26;63.05;92270.88;6129267;23;20021;-87
2023/11/02 17:42:13;;;;;;;5.40;4.50;;;;;;;11.43;62.35;92293.34;6127526;23;20036;-86
2023/11/02 17:44:39;;;;;;;5.57;5.18;;;;;;;11.42;62.12;92326.38;6152383;23;20009;-86
2023/11/02 17:47:05;;;;;;;2.80;2.60;;;;;;;11.49;61.91;92336.56;6153031;23;20033;-86
2023/11/02 17:49:30;;;;;;;2.92;2.30;;;;;;;11.48;62.26;92338.41;6103789;23;20140;-87
2023/11/02 20:00:09;;;;;;;5.88;5.38;;;;;;;11.57;62.33;92424.56;6159012;23;20100;-87
2023/11/02 20:02:35;;;;;;;6.13;5.53;;;;;;;11.46;62.92;92456.78;6152873;23;20025;-87
2023/11/02 20:31:33;;;;;;;8.80;7.90;;;;;;;11.68;63.58;92400.16;6152377;23;20029;-87
2023/11/02 20:49:30;;;;;;;9.07;8.07;;;;;;;11.27;64.63;92388.75;6153555;23;20110;-86
2023/11/02 20:54:32;;;;;;;15.93;14.02;;;;;;;11.56;63.53;92391.78;6154587;23;20025;-87
2023/11/02 20:56:57;;;;;;;15.50;13.48;;;;;;;11.39;63.92;92388.56;6131159;23;20096;-87
2023/11/02 20:59:23;;;;;;;12.05;9.77;;;;;;;11.38;63.59;92403.38;6132952;23;20021;-87
2023/11/02 21:01:49;;;;;;;10.98;9.85;;;;;;;11.62;62.89;92431.66;6109240;23;20024;-87
2023/11/02 21:04:17;;;;;;;7.70;6.90;;;;;;;11.54;63.17;92419.88;6157942;23;20008;-86
2023/11/02 21:11:55;;;;;;;8.23;7.40;;;;;;;11.32;63.84;92365.38;6183273;23;20025;-86
2023/11/02 21:14:21;;;;;;;7.32;6.35;;;;;;;11.51;63.21;92383.94;6157140;23;20009;-86
2023/11/02 21:16:49;;;;;;;8.13;7.00;;;;;;;11.70;62.42;92377.25;6156346;23;20067;-86
2023/11/02 21:19:15;;;;;;;7.60;6.15;;;;;;;11.49;63.04;92375.59;6132644;23;20005;-86
2023/11/02 21:39:30;;;;;;;4.82;4.35;;;;;;;11.28;63.41;92354.66;6160146;23;20017;-87
2023/11/02 21:41:57;;;;;;;5.35;4.30;;;;;;;11.28;63.21;92338.28;6152495;23;20019;-87
2023/11/02 21:44:22;;;;;;;4.00;3.60;;;;;;;11.29;62.81;92335.44;6152008;23;20152;-87
2023/11/02 22:17:45;;;;;;;5.25;4.68;;;;;;;11.77;61.41;92350.22;6183111;23;20021;-86
2023/11/02 22:20:11;;;;;;;6.45;4.53;;;;;;;11.71;61.93;92347.59;6157185;23;20013;-87
2023/11/02 22:33:55;;;;;;;4.25;3.80;;;;;;;11.26;62.74;92355.97;6191850;23;20028;-87
2023/11/02 22:36:21;;;;;;;4.55;3.72;;;;;;;11.23;63.25;92352.06;6156858;23;20021;-86
2023/11/02 22:38:47;;;;;;;8.20;4.72;;;;;;;11.11;63.95;92354.84;6157463;23;20012;-86
2023/11/02 22:41:12;;;;;;;5.75;4.43;;;;;;;11.16;64.13;92346.28;6157868;23;20084;-87
2023/11/02 22:43:38;;;;;;;4.07;3.55;;;;;;;11.19;63.98;92352.81;6158264;23;20001;-87
2023/11/02 22:46:07;;;;;;;5.00;4.47;;;;;;;11.38;63.03;92353.94;6157426;23;20084;-87
2023/11/02 22:48:38;;;;;;;5.07;4.20;;;;;;;11.41;63.12;92363.09;6157172;23;20009;-87
2023/11/02 23:45:10;;;;;;;2.50;2.22;;;;;;;11.45;61.59;92258.22;6183920;23;20025;-87
2023/11/02 23:47:35;;;;;;;2.20;1.98;;;;;;;11.54;61.14;92263.72;6158372;23;20013;-87
2023/11/02 23:50:05;;;;;;;1.33;1.23;;;;;;;11.59;60.49;92268.16;6158645;23;20013;-88
2023/11/02 23:52:33;;;;;;;1.73;1.40;;;;;;;11.65;60.30;92288.75;6183954;23;20078;-87
